Time;durP1;ratioP1;P1;durP2;ratioP2;P2;SDS_P1;SDS_P2;PMS_P1;PMS_P2;Temp;Humidity;BMP_temperature;BMP_pressure;BME280_temperature;BME280_humidity;BME280_pressure;Samples;Min_cycle;Max_cycle;Signal;HPM_P1;HPM_P2
2022/08/27 00:00:13;;;;;;;17.48;7.38;;;24.10;79.80;;;;;;5072963;28;20205;-70
2022/08/27 00:02:40;;;;;;;10.57;6.68;;;24.10;80.20;;;;;;5072642;28;20247;-70
2022/08/27 00:05:07;;;;;;;10.45;7.45;;;24.00;80.40;;;;;;5072823;28;20209;-71
2022/08/27 00:07:35;;;;;;;12.70;6.97;;;24.00;80.70;;;;;;5071388;28;20650;-69
2022/08/27 00:10:02;;;;;;;10.43;6.53;;;24.00;81.10;;;;;;5070352;28;20570;-70
2022/08/27 00:12:29;;;;;;;7.82;6.93;;;24.00;81.50;;;;;;5066180;28;20231;-70
2022/08/27 00:14:57;;;;;;;12.85;6.72;;;24.00;81.80;;;;;;5073248;28;20662;-70
2022/08/27 00:17:24;;;;;;;7.40;6.60;;;23.90;82.00;;;;;;5071991;28;20207;-70
2022/08/27 00:19:51;;;;;;;12.00;7.40;;;23.90;82.30;;;;;;5071494;28;20662;-71
2022/08/27 00:22:17;;;;;;;9.45;6.72;;;23.90;82.60;;;;;;5072096;28;20224;-70
2022/08/27 00:24:46;;;;;;;8.63;6.60;;;23.90;82.90;;;;;;5071106;28;20562;-70
2022/08/27 00:27:12;;;;;;;9.82;6.70;;;23.90;83.20;;;;;;5070656;28;20212;-70
2022/08/27 00:29:39;;;;;;;8.60;6.72;;;23.90;83.40;;;;;;5071533;28;20628;-70
2022/08/27 00:32:07;;;;;;;10.38;7.30;;;23.90;83.70;;;;;;5071277;28;20233;-71
2022/08/27 00:34:34;;;;;;;9.60;6.85;;;23.80;83.90;;;;;;5072593;28;20296;-71
2022/08/27 00:37:02;;;;;;;12.80;7.53;;;23.90;84.30;;;;;;5071922;28;20249;-70
2022/08/27 00:39:29;;;;;;;13.98;6.65;;;23.80;84.40;;;;;;5072139;28;20660;-70
2022/08/27 00:41:59;;;;;;;12.15;6.63;;;23.80;84.80;;;;;;5069836;28;20646;-71
2022/08/27 00:44:26;;;;;;;9.88;7.43;;;23.70;85.10;;;;;;5070635;28;20212;-71
2022/08/27 00:46:56;;;;;;;10.80;6.78;;;23.70;85.30;;;;;;5072836;28;20204;-70
2022/08/27 00:49:27;;;;;;;13.20;6.75;;;23.70;85.60;;;;;;5072413;28;20201;-71
2022/08/27 00:52:00;;;;;;;8.52;6.80;;;23.60;85.70;;;;;;5067504;28;20688;-70
2022/08/27 00:54:28;;;;;;;12.43;7.00;;;23.70;86.00;;;;;;5069775;28;20236;-70
2022/08/27 00:56:59;;;;;;;11.18;7.22;;;23.70;86.30;;;;;;5072510;28;20204;-71
2022/08/27 00:59:29;;;;;;;10.65;6.85;;;23.60;87.10;;;;;;5070163;28;20205;-70
2022/08/27 01:04:44;;;;;;;10.18;7.32;;;23.60;86.60;;;;;;5066205;28;20228;-71
2022/08/27 01:07:11;;;;;;;10.85;7.47;;;23.60;86.80;;;;;;5071897;28;20201;-70
2022/08/27 01:09:39;;;;;;;11.80;7.18;;;23.60;86.90;;;;;;5072485;28;20209;-70
2022/08/27 01:12:08;;;;;;;8.10;6.45;;;23.60;87.10;;;;;;5059447;28;20220;-70
2022/08/27 01:14:35;;;;;;;9.73;7.00;;;23.50;87.30;;;;;;5072970;28;20201;-71
2022/08/27 01:17:04;;;;;;;7.53;6.78;;;23.50;87.60;;;;;;5074159;28;20680;-70
2022/08/27 01:19:36;;;;;;;13.18;7.28;;;23.50;87.80;;;;;;5073220;28;20201;-70
2022/08/27 01:22:10;;;;;;;9.00;6.65;;;23.50;88.00;;;;;;5070403;28;20222;-70
2022/08/27 01:24:42;;;;;;;12.43;7.60;;;23.40;88.20;;;;;;5063253;28;20201;-70
2022/08/27 01:27:12;;;;;;;10.32;7.28;;;23.40;88.50;;;;;;5063024;28;20941;-69
2022/08/27 01:29:39;;;;;;;13.73;7.53;;;23.40;88.70;;;;;;5058857;28;20269;-70
2022/08/27 01:32:09;;;;;;;10.52;7.15;;;23.40;89.00;;;;;;5069398;28;20664;-70
2022/08/27 01:34:36;;;;;;;9.02;7.22;;;23.40;88.90;;;;;;5072662;28;20216;-70
2022/08/27 01:37:05;;;;;;;11.32;7.03;;;23.30;89.40;;;;;;5073604;28;20791;-69
2022/08/27 01:39:32;;;;;;;13.13;7.63;;;23.30;89.70;;;;;;5071710;28;20250;-71
2022/08/27 01:42:05;;;;;;;10.70;7.80;;;23.30;89.90;;;;;;5070260;28;20236;-71
2022/08/27 01:44:46;;;;;;;8.50;7.00;;;23.20;90.00;;;;;;5072118;28;20212;-71
2022/08/27 01:47:13;;;;;;;10.73;7.55;;;23.20;90.10;;;;;;5058766;28;20296;-70
2022/08/27 01:49:40;;;;;;;9.73;7.75;;;23.20;90.30;;;;;;5063651;28;20197;-71
2022/08/27 01:52:06;;;;;;;10.30;6.68;;;23.20;90.40;;;;;;5067133;28;20213;-70
2022/08/27 01:54:33;;;;;;;9.63;7.18;;;23.10;90.50;;;;;;5072131;28;20208;-69
2022/08/27 01:57:01;;;;;;;11.63;7.28;;;23.10;90.60;;;;;;5071478;28;20205;-70
2022/08/27 01:59:29;;;;;;;12.15;8.00;;;23.10;90.70;;;;;;5072793;28;20225;-69
2022/08/27 02:01:56;;;;;;;9.85;7.13;;;23.10;90.90;;;;;;5071632;28;20241;-69
2022/08/27 02:04:23;;;;;;;12.43;8.65;;;23.10;91.00;;;;;;5071970;28;20206;-69
2022/08/27 02:06:50;;;;;;;13.25;7.82;;;23.00;91.00;;;;;;5072090;28;20209;-70
2022/08/27 02:09:17;;;;;;;10.38;7.70;;;23.00;91.20;;;;;;5073717;28;20669;-70
2022/08/27 02:11:44;;;;;;;12.98;8.02;;;23.00;91.40;;;;;;5072863;28;20201;-71
2022/08/27 02:14:10;;;;;;;7.97;7.18;;;23.00;91.50;;;;;;5071826;28;20228;-71
2022/08/27 02:16:39;;;;;;;10.50;7.28;;;23.00;91.60;;;;;;5073582;28;20212;-70
2022/08/27 02:19:06;;;;;;;10.02;7.90;;;22.90;91.70;;;;;;5072186;28;20217;-70
2022/08/27 02:21:33;;;;;;;12.82;7.60;;;22.90;91.80;;;;;;5072921;28;20599;-70
2022/08/27 02:24:00;;;;;;;9.90;7.75;;;22.80;92.00;;;;;;5071099;28;20533;-70
2022/08/27 02:26:27;;;;;;;12.80;7.97;;;22.80;92.10;;;;;;5072385;28;20209;-69
2022/08/27 02:28:54;;;;;;;10.75;7.53;;;22.80;92.20;;;;;;5074028;28;20209;-70
2022/08/27 02:31:22;;;;;;;11.30;8.45;;;22.70;92.30;;;;;;5074424;28;20575;-69
2022/08/27 02:33:51;;;;;;;11.27;7.72;;;22.60;92.50;;;;;;5072995;28;20225;-70
2022/08/27 02:36:18;;;;;;;9.75;7.63;;;22.70;92.60;;;;;;5073180;28;20320;-71
2022/08/27 02:38:45;;;;;;;11.25;7.85;;;22.70;92.80;;;;;;5072855;28;20236;-69
2022/08/27 02:41:13;;;;;;;9.60;7.85;;;22.60;92.90;;;;;;5066151;28;20205;-69
2022/08/27 02:43:39;;;;;;;10.18;8.30;;;22.60;93.10;;;;;;5071712;28;20205;-69
2022/08/27 02:46:06;;;;;;;16.65;7.85;;;22.50;93.20;;;;;;5074693;28;20201;-70
2022/08/27 02:48:36;;;;;;;11.65;8.07;;;22.50;93.40;;;;;;5057147;28;20560;-69
2022/08/27 02:51:06;;;;;;;10.88;8.57;;;22.50;93.60;;;;;;5073659;28;20205;-70
2022/08/27 02:53:35;;;;;;;11.75;8.73;;;22.50;93.60;;;;;;5073052;28;20224;-70
2022/08/27 02:56:02;;;;;;;10.65;7.90;;;22.50;93.90;;;;;;5074602;28;20201;-70
2022/08/27 02:58:28;;;;;;;10.52;8.32;;;22.40;94.00;;;;;;5076149;28;20205;-70
2022/08/27 03:00:56;;;;;;;11.40;8.63;;;22.40;94.40;;;;;;5074155;28;20224;-69
2022/08/27 03:03:22;;;;;;;10.80;8.57;;;22.40;94.30;;;;;;5072027;28;20198;-71
2022/08/27 03:05:49;;;;;;;10.48;8.27;;;22.30;94.50;;;;;;5072253;28;20691;-71
2022/08/27 03:08:17;;;;;;;13.32;8.50;;;22.30;94.70;;;;;;5073770;28;20231;-71
2022/08/27 03:10:44;;;;;;;10.73;8.10;;;22.30;94.80;;;;;;5072611;28;20209;-71
2022/08/27 03:13:11;;;;;;;14.85;9.45;;;22.30;95.00;;;;;;5071493;28;20318;-70
2022/08/27 03:15:37;;;;;;;13.13;8.68;;;22.30;95.20;;;;;;5071935;28;20198;-69
2022/08/27 03:18:20;;;;;;;12.77;8.10;;;22.30;95.40;;;;;;5074940;28;20232;-70
2022/08/27 03:20:49;;;;;;;10.80;8.35;;;22.20;95.60;;;;;;5061362;28;20405;-70
2022/08/27 03:23:20;;;;;;;11.90;8.27;;;22.20;95.70;;;;;;5075217;28;20237;-69
2022/08/27 03:25:52;;;;;;;13.30;8.82;;;22.20;95.90;;;;;;5073966;28;20209;-69
2022/08/27 03:28:19;;;;;;;12.40;8.63;;;22.20;96.10;;;;;;5076318;28;20201;-69
2022/08/27 03:30:50;;;;;;;12.82;8.52;;;22.20;96.30;;;;;;5077175;28;20308;-71
2022/08/27 03:33:18;;;;;;;10.43;8.85;;;22.10;96.40;;;;;;5076033;28;20220;-70
2022/08/27 03:35:45;;;;;;;10.57;7.75;;;22.20;96.60;;;;;;5076221;28;20233;-70
2022/08/27 03:38:12;;;;;;;10.65;7.85;;;22.10;96.80;;;;;;5077481;28;20274;-70
2022/08/27 03:40:41;;;;;;;11.48;8.52;;;22.20;96.90;;;;;;5069258;28;20249;-70
2022/08/27 03:43:08;;;;;;;10.35;8.27;;;22.20;97.10;;;;;;5071480;28;20197;-71
2022/08/27 03:45:35;;;;;;;10.65;8.85;;;22.20;97.40;;;;;;5073712;28;20727;-70
2022/08/27 03:48:02;;;;;;;13.25;8.45;;;22.10;97.50;;;;;;5076401;28;20213;-70
2022/08/27 03:50:29;;;;;;;11.23;8.88;;;22.20;97.70;;;;;;5074846;28;20202;-71
2022/08/27 03:52:56;;;;;;;14.30;8.35;;;22.10;97.90;;;;;;5075627;28;20217;-71
2022/08/27 03:55:23;;;;;;;14.73;8.25;;;22.10;97.90;;;;;;5076398;28;20209;-71
2022/08/27 03:57:51;;;;;;;14.60;9.23;;;22.10;98.20;;;;;;5077594;28;20231;-71
2022/08/27 04:00:18;;;;;;;13.57;8.98;;;22.10;98.40;;;;;;5077182;28;20210;-71
2022/08/27 04:02:45;;;;;;;11.10;8.00;;;22.10;98.70;;;;;;5074462;28;20206;-71
2022/08/27 04:05:13;;;;;;;14.13;8.90;;;22.10;98.80;;;;;;5076679;28;20219;-71
2022/08/27 04:07:41;;;;;;;12.30;8.75;;;22.10;99.00;;;;;;5077010;28;20207;-71
2022/08/27 04:10:09;;;;;;;17.25;8.40;;;22.10;99.10;;;;;;5076869;28;20654;-72
2022/08/27 04:12:37;;;;;;;14.45;9.30;;;22.10;99.30;;;;;;5064358;28;20210;-72
2022/08/27 04:15:07;;;;;;;11.57;8.55;;;22.10;99.40;;;;;;5075395;28;20271;-72
2022/08/27 04:17:34;;;;;;;15.13;8.57;;;22.20;99.60;;;;;;5074135;28;20374;-72
2022/08/27 04:20:01;;;;;;;14.98;8.98;;;22.20;99.70;;;;;;5074548;28;20205;-71
2022/08/27 04:22:28;;;;;;;13.13;8.30;;;22.20;99.90;;;;;;5075115;28;20225;-71
2022/08/27 04:24:56;;;;;;;13.13;8.82;;;22.20;99.90;;;;;;5075197;28;20209;-71
2022/08/27 04:27:25;;;;;;;13.73;8.30;;;22.30;99.90;;;;;;5074828;28;20259;-70
2022/08/27 04:29:54;;;;;;;10.50;8.50;;;22.30;99.90;;;;;;5074587;28;20213;-70
2022/08/27 04:32:24;;;;;;;11.18;8.45;;;22.30;99.90;;;;;;5073396;28;20205;-71
2022/08/27 04:34:54;;;;;;;12.57;8.15;;;22.40;99.90;;;;;;5068876;28;20233;-70
2022/08/27 04:37:21;;;;;;;11.50;8.73;;;22.30;99.90;;;;;;5076500;28;20201;-71
2022/08/27 04:39:48;;;;;;;14.75;9.20;;;22.40;99.90;;;;;;5074938;28;20232;-72
2022/08/27 04:42:17;;;;;;;14.45;8.63;;;22.40;99.90;;;;;;5073271;28;20206;-71
2022/08/27 04:44:44;;;;;;;13.80;9.38;;;22.40;99.90;;;;;;5073726;28;20658;-71
2022/08/27 04:47:12;;;;;;;9.52;8.02;;;22.40;99.90;;;;;;5073224;28;20767;-71
2022/08/27 04:49:41;;;;;;;13.52;8.60;;;22.50;99.90;;;;;;5072501;28;20208;-70
2022/08/27 04:52:08;;;;;;;9.82;8.82;;;22.50;99.90;;;;;;5073691;28;20217;-70
2022/08/27 04:54:35;;;;;;;10.95;8.77;;;22.50;99.90;;;;;;5071719;28;20475;-70
2022/08/27 04:57:04;;;;;;;9.95;8.88;;;22.60;99.90;;;;;;5074495;28;20644;-71
2022/08/27 04:59:31;;;;;;;15.10;8.65;;;22.60;99.90;;;;;;5073520;28;20707;-68
2022/08/27 05:01:59;;;;;;;12.13;9.13;;;22.60;99.90;;;;;;5069912;28;20205;-71
2022/08/27 05:04:26;;;;;;;11.10;8.27;;;22.70;99.90;;;;;;5073740;28;20208;-71
2022/08/27 05:06:54;;;;;;;14.40;10.00;;;22.70;99.90;;;;;;5073864;28;20569;-70
2022/08/27 05:09:21;;;;;;;11.68;9.40;;;22.70;99.90;;;;;;5072721;28;20201;-69
2022/08/27 05:11:48;;;;;;;13.95;8.45;;;22.80;99.90;;;;;;5071062;28;20647;-70
2022/08/27 05:14:15;;;;;;;10.70;8.63;;;22.80;99.90;;;;;;5072782;28;20231;-70
2022/08/27 05:16:42;;;;;;;12.13;8.75;;;22.90;99.90;;;;;;5073312;28;20224;-70
2022/08/27 05:19:13;;;;;;;12.65;8.38;;;22.90;99.90;;;;;;5073475;28;20208;-71
2022/08/27 05:21:46;;;;;;;14.50;8.80;;;23.00;99.90;;;;;;5072856;28;20330;-70
2022/08/27 05:24:15;;;;;;;12.13;9.25;;;23.00;99.90;;;;;;5073354;28;20670;-70
2022/08/27 05:26:43;;;;;;;13.85;9.18;;;23.00;99.90;;;;;;5073159;28;20209;-72
2022/08/27 05:29:09;;;;;;;13.45;8.65;;;23.10;99.90;;;;;;5073519;28;20280;-71
2022/08/27 05:31:36;;;;;;;10.82;9.15;;;23.10;99.90;;;;;;5073004;28;20236;-71
2022/08/27 05:34:04;;;;;;;11.85;8.85;;;23.10;99.90;;;;;;5073832;28;20225;-71
2022/08/27 05:36:35;;;;;;;10.20;8.90;;;23.10;99.90;;;;;;5073510;28;20236;-70
2022/08/27 05:39:05;;;;;;;12.43;9.25;;;23.20;99.90;;;;;;5074052;28;20205;-71
2022/08/27 05:41:34;;;;;;;11.93;9.55;;;23.20;99.90;;;;;;5064993;28;20214;-70
2022/08/27 05:44:03;;;;;;;15.10;8.82;;;23.30;99.90;;;;;;5071611;28;20197;-70
2022/08/27 05:46:30;;;;;;;17.95;9.75;;;23.30;99.90;;;;;;5058339;28;20210;-71
2022/08/27 05:48:59;;;;;;;15.68;9.68;;;23.40;99.90;;;;;;5072916;28;20209;-71
2022/08/27 05:51:28;;;;;;;16.92;9.60;;;23.40;99.90;;;;;;5059976;28;20561;-70
2022/08/27 05:53:56;;;;;;;10.52;8.63;;;23.50;99.90;;;;;;5071791;28;20247;-72
2022/08/27 05:56:25;;;;;;;12.07;9.32;;;23.50;99.90;;;;;;5065837;28;20201;-71
2022/08/27 06:01:40;;;;;;;13.27;8.55;;;23.60;99.90;;;;;;5073558;28;20247;-71
2022/08/27 06:04:09;;;;;;;12.45;9.25;;;23.70;99.90;;;;;;5060592;28;20230;-70
2022/08/27 06:06:36;;;;;;;21.00;9.32;;;23.70;99.90;;;;;;5071487;28;20216;-70
2022/08/27 06:09:03;;;;;;;17.77;9.27;;;23.80;99.90;;;;;;5073755;28;20211;-71
2022/08/27 06:11:30;;;;;;;12.65;8.85;;;23.80;99.90;;;;;;5073038;28;20205;-71
2022/08/27 06:13:58;;;;;;;15.90;9.52;;;23.90;99.90;;;;;;5073123;28;20229;-69
2022/08/27 06:16:25;;;;;;;13.25;9.18;;;23.90;99.90;;;;;;5061691;28;20205;-69
2022/08/27 06:18:52;;;;;;;11.38;8.50;;;24.00;99.90;;;;;;5072048;28;20245;-68
2022/08/27 06:21:21;;;;;;;12.82;9.25;;;24.10;99.90;;;;;;5071649;28;20259;-69
2022/08/27 06:23:47;;;;;;;9.30;8.25;;;24.10;99.90;;;;;;5071577;28;20641;-68
2022/08/27 06:26:17;;;;;;;10.52;8.90;;;24.20;99.90;;;;;;5069041;28;20205;-67
2022/08/27 06:28:44;;;;;;;13.75;7.90;;;24.30;99.70;;;;;;5072097;28;20296;-70
2022/08/27 06:31:15;;;;;;;9.98;8.10;;;24.30;99.40;;;;;;5066990;28;20205;-70
2022/08/27 06:33:43;;;;;;;12.13;8.55;;;24.40;99.10;;;;;;5070800;28;20215;-70
2022/08/27 06:36:12;;;;;;;13.30;8.30;;;24.50;99.00;;;;;;5072224;28;20233;-72
2022/08/27 06:38:40;;;;;;;10.75;8.50;;;24.50;98.90;;;;;;5072354;28;20209;-70
2022/08/27 06:41:08;;;;;;;9.57;8.05;;;24.60;98.90;;;;;;5070355;28;20205;-71
2022/08/27 06:43:36;;;;;;;10.23;8.20;;;24.70;98.80;;;;;;5070448;28;20205;-71
2022/08/27 06:46:03;;;;;;;12.55;8.23;;;24.90;98.70;;;;;;5069107;28;20213;-71
2022/08/27 06:48:32;;;;;;;17.85;9.23;;;25.00;98.50;;;;;;5067369;28;20217;-71
2022/08/27 06:50:59;;;;;;;12.55;8.48;;;25.10;98.10;;;;;;5071667;28;20209;-71
2022/08/27 06:53:26;;;;;;;10.68;8.43;;;25.30;97.90;;;;;;5075362;28;20216;-70
2022/08/27 06:55:53;;;;;;;11.48;7.20;;;25.40;97.80;;;;;;5066227;28;20232;-70
2022/08/27 06:58:20;;;;;;;14.05;9.13;;;25.40;97.50;;;;;;5067967;28;20216;-71
2022/08/27 07:00:46;;;;;;;12.30;8.50;;;25.50;97.40;;;;;;5071059;28;20217;-68
2022/08/27 07:03:13;;;;;;;15.35;8.57;;;25.50;97.30;;;;;;5062995;28;20665;-68
2022/08/27 07:05:41;;;;;;;13.20;8.80;;;25.60;97.10;;;;;;5065690;28;20564;-67
2022/08/27 07:08:09;;;;;;;13.07;8.40;;;25.70;96.90;;;;;;5072282;28;20218;-67
2022/08/27 07:10:36;;;;;;;11.75;9.18;;;25.80;96.70;;;;;;5060722;28;20211;-68
2022/08/27 07:13:03;;;;;;;14.43;8.70;;;25.80;96.30;;;;;;5066365;28;20220;-67
2022/08/27 07:15:30;;;;;;;13.50;8.93;;;25.90;96.30;;;;;;5063813;28;20733;-67
2022/08/27 07:17:57;;;;;;;13.90;7.93;;;26.00;96.00;;;;;;5066596;28;20256;-67
2022/08/27 07:20:24;;;;;;;13.23;8.32;;;26.20;95.80;;;;;;5073278;28;20221;-67
2022/08/27 07:22:53;;;;;;;10.27;7.40;;;26.40;95.40;;;;;;5073462;28;20229;-67
2022/08/27 07:25:20;;;;;;;20.45;11.30;;;26.50;95.10;;;;;;5072728;28;20316;-67
2022/08/27 07:27:47;;;;;;;14.88;9.70;;;26.60;94.70;;;;;;5071993;28;20205;-68
2022/08/27 07:30:15;;;;;;;19.60;10.23;;;26.80;94.40;;;;;;5074267;28;20672;-67
2022/08/27 07:32:42;;;;;;;13.90;9.27;;;26.80;94.10;;;;;;5072843;28;20217;-67
2022/08/27 07:35:10;;;;;;;16.30;9.18;;;27.00;93.90;;;;;;5070065;28;20228;-67
2022/08/27 07:37:37;;;;;;;13.27;8.73;;;27.10;93.50;;;;;;5073523;28;20217;-70
2022/08/27 07:40:08;;;;;;;17.05;8.30;;;27.30;93.10;;;;;;5065315;28;20206;-65
2022/08/27 07:45:19;;;;;;;10.75;7.53;;;27.40;92.30;;;;;;5067984;28;20205;-66
2022/08/27 07:47:46;;;;;;;10.13;7.18;;;27.50;92.10;;;;;;5072896;28;20216;-69
2022/08/27 07:50:14;;;;;;;15.45;7.80;;;27.60;91.50;;;;;;5074697;28;20213;-68
2022/08/27 07:52:42;;;;;;;11.90;7.63;;;27.70;91.10;;;;;;5074901;28;20637;-67
2022/08/27 07:55:11;;;;;;;11.52;7.70;;;27.90;90.70;;;;;;5072263;28;20244;-67
2022/08/27 07:57:38;;;;;;;11.80;7.43;;;28.00;90.40;;;;;;5073500;28;20201;-64
2022/08/27 08:00:08;;;;;;;15.27;7.13;;;28.10;89.80;;;;;;5061638;28;20258;-65
2022/08/27 08:02:35;;;;;;;16.10;8.20;;;28.30;88.90;;;;;;5064227;28;20216;-64
2022/08/27 08:05:01;;;;;;;13.45;7.55;;;28.40;86.50;;;;;;5063678;28;20206;-65
2022/08/27 08:07:28;;;;;;;12.95;6.93;;;28.50;85.90;;;;;;5069107;28;20209;-67
2022/08/27 08:09:55;;;;;;;9.50;7.07;;;28.60;85.80;;;;;;5068419;28;20201;-66
2022/08/27 08:12:23;;;;;;;9.00;7.72;;;28.80;85.90;;;;;;5061778;28;20209;-65
2022/08/27 08:14:54;;;;;;;10.43;7.63;;;28.90;85.60;;;;;;5071461;28;20229;-65
2022/08/27 08:17:21;;;;;;;12.52;7.15;;;29.10;85.10;;;;;;5065681;28;20201;-65
2022/08/27 08:19:49;;;;;;;12.32;6.10;;;29.20;83.60;;;;;;5069017;28;20209;-65
2022/08/27 08:22:16;;;;;;;11.63;6.63;;;29.30;82.40;;;;;;5064776;28;20748;-64
2022/08/27 08:24:42;;;;;;;8.43;7.00;;;29.40;81.10;;;;;;5069575;28;20205;-65
2022/08/27 08:27:10;;;;;;;17.70;6.63;;;29.50;80.40;;;;;;5069023;28;20201;-66
2022/08/27 08:29:38;;;;;;;11.20;6.40;;;29.70;79.80;;;;;;5068496;28;20219;-66
2022/08/27 08:32:05;;;;;;;9.73;6.53;;;29.80;78.80;;;;;;5062573;28;20212;-66
2022/08/27 08:34:32;;;;;;;11.60;6.65;;;29.90;77.90;;;;;;5065996;28;20316;-66
2022/08/27 08:36:59;;;;;;;11.90;6.53;;;30.00;76.80;;;;;;5070069;28;20228;-67
2022/08/27 08:39:26;;;;;;;12.32;6.95;;;30.10;75.50;;;;;;5064435;28;20201;-66
2022/08/27 08:41:55;;;;;;;9.40;6.68;;;30.20;74.80;;;;;;5063925;28;20216;-66
2022/08/27 08:44:29;;;;;;;13.98;7.03;;;30.20;73.90;;;;;;5061561;28;20213;-66
2022/08/27 08:47:03;;;;;;;14.80;7.20;;;30.30;74.60;;;;;;5075818;28;20265;-67
2022/08/27 08:49:38;;;;;;;13.43;6.85;;;30.50;73.90;;;;;;5063232;28;20205;-65
2022/08/27 08:52:16;;;;;;;10.18;6.97;;;30.60;72.60;;;;;;5063827;28;20209;-66
2022/08/27 08:54:44;;;;;;;7.05;6.13;;;30.80;71.40;;;;;;5057946;28;20245;-66
2022/08/27 08:57:20;;;;;;;12.15;7.10;;;30.90;69.70;;;;;;5066903;28;20266;-64
2022/08/27 08:59:56;;;;;;;10.00;7.03;;;30.90;68.80;;;;;;5062480;28;20720;-64
2022/08/27 09:02:24;;;;;;;12.07;6.13;;;31.00;69.20;;;;;;5071252;28;20579;-62
2022/08/27 09:04:51;;;;;;;9.35;6.78;;;31.30;68.00;;;;;;5070274;28;20287;-63
2022/08/27 09:07:33;;;;;;;11.85;6.13;;;31.50;67.70;;;;;;5068438;28;20228;-64
2022/08/27 09:10:10;;;;;;;9.02;6.15;;;31.70;66.70;;;;;;5070290;28;20250;-64
2022/08/27 09:12:36;;;;;;;13.73;6.57;;;31.80;65.70;;;;;;5066065;28;20243;-63
2022/08/27 09:15:12;;;;;;;8.95;5.90;;;32.00;65.40;;;;;;5062393;28;20251;-66
2022/08/27 09:17:41;;;;;;;11.07;6.47;;;32.30;64.90;;;;;;5070634;28;20252;-66
2022/08/27 09:20:09;;;;;;;9.40;6.88;;;32.50;64.00;;;;;;5071813;28;20636;-67
2022/08/27 09:22:48;;;;;;;10.85;6.53;;;32.60;63.20;;;;;;5071161;28;20587;-66
2022/08/27 09:25:19;;;;;;;9.23;6.30;;;32.70;62.80;;;;;;5070996;28;20540;-67
2022/08/27 09:27:47;;;;;;;7.18;6.35;;;32.80;62.40;;;;;;5070057;28;20204;-69
2022/08/27 09:30:20;;;;;;;8.32;6.80;;;33.00;62.30;;;;;;5070864;28;20209;-68
2022/08/27 09:32:55;;;;;;;11.18;7.13;;;33.10;61.70;;;;;;5071550;28;20205;-68
2022/08/27 09:35:24;;;;;;;9.07;7.13;;;33.40;61.10;;;;;;5068410;28;20283;-69
2022/08/27 09:37:54;;;;;;;12.88;7.30;;;33.70;60.30;;;;;;5072512;28;20212;-71
2022/08/27 09:40:31;;;;;;;13.25;8.20;;;33.80;58.90;;;;;;5071106;28;20275;-66
2022/08/27 09:43:05;;;;;;;11.68;7.15;;;34.00;58.20;;;;;;5071446;28;20662;-66
2022/08/27 09:45:33;;;;;;;16.17;7.13;;;34.30;58.20;;;;;;5061686;28;20193;-67
2022/08/27 09:48:06;;;;;;;11.27;7.03;;;34.80;57.90;;;;;;5068824;28;20208;-67
2022/08/27 09:50:37;;;;;;;11.77;7.30;;;35.00;56.80;;;;;;5064563;28;20646;-66
2022/08/27 09:53:04;;;;;;;8.18;6.75;;;35.00;56.40;;;;;;5060540;28;20206;-66
2022/08/27 09:55:39;;;;;;;12.95;7.65;;;35.10;56.30;;;;;;5066536;28;20229;-68
2022/08/27 09:58:07;;;;;;;9.65;7.68;;;35.20;55.70;;;;;;5059512;28;20197;-65
2022/08/27 10:00:37;;;;;;;15.63;7.53;;;35.10;55.20;;;;;;5058572;28;20201;-67
2022/08/27 10:03:06;;;;;;;11.50;7.75;;;35.20;55.70;;;;;;5067999;28;20201;-67
2022/08/27 10:05:38;;;;;;;13.43;7.90;;;35.20;55.30;;;;;;5068409;28;20205;-67
2022/08/27 10:08:14;;;;;;;11.00;7.47;;;35.30;54.60;;;;;;5064078;28;20204;-67
2022/08/27 10:10:51;;;;;;;11.63;7.43;;;35.20;54.90;;;;;;5070717;28;20522;-67
2022/08/27 10:13:21;;;;;;;10.40;7.63;;;35.50;54.60;;;;;;5061964;28;20236;-66
2022/08/27 10:16:00;;;;;;;11.90;7.93;;;35.70;54.40;;;;;;5069505;28;20233;-66
2022/08/27 10:18:40;;;;;;;10.02;7.60;;;35.70;54.00;;;;;;5066508;28;20204;-67
2022/08/27 10:21:15;;;;;;;10.88;7.80;;;35.90;53.80;;;;;;5063512;28;20202;-69
2022/08/27 10:23:51;;;;;;;9.00;7.10;;;36.10;53.50;;;;;;5070862;28;20270;-68
2022/08/27 10:26:24;;;;;;;11.60;8.45;;;36.40;53.40;;;;;;5069045;28;20689;-69
2022/08/27 10:29:08;;;;;;;8.60;7.68;;;36.70;52.20;;;;;;5068488;28;20466;-68
2022/08/27 10:31:40;;;;;;;11.90;7.38;;;36.80;51.30;;;;;;5066371;28;20715;-68
2022/08/27 10:34:23;;;;;;;10.70;7.53;;;36.70;50.50;;;;;;5056507;28;20586;-69
2022/08/27 10:36:59;;;;;;;9.93;7.47;;;36.70;50.30;;;;;;5069652;28;20233;-68
2022/08/27 10:39:40;;;;;;;10.45;7.35;;;36.70;50.50;;;;;;5069401;28;20228;-67
2022/08/27 10:42:14;;;;;;;8.52;6.78;;;36.80;50.20;;;;;;5064002;28;20209;-67
2022/08/27 10:44:59;;;;;;;12.07;6.70;;;36.90;49.90;;;;;;5066098;28;20212;-66
2022/08/27 10:47:39;;;;;;;11.07;7.10;;;36.90;49.20;;;;;;5066991;28;20223;-67
2022/08/27 10:50:10;;;;;;;9.65;7.00;;;36.80;48.90;;;;;;5067647;28;20284;-67
2022/08/27 10:52:42;;;;;;;11.27;7.22;;;36.80;49.20;;;;;;5070412;28;20208;-67
2022/08/27 10:55:14;;;;;;;7.68;6.38;;;36.80;47.80;;;;;;5070336;28;20201;-67
2022/08/27 10:58:11;;;;;;;9.90;6.32;;;36.60;46.80;;;;;;5068249;28;20729;-67
2022/08/27 11:00:45;;;;;;;10.52;6.60;;;36.40;47.00;;;;;;5069341;28;20281;-67
2022/08/27 11:03:26;;;;;;;9.80;6.70;;;36.40;48.00;;;;;;5069368;28;20205;-67
2022/08/27 11:05:55;;;;;;;7.85;6.47;;;36.50;47.80;;;;;;5060110;28;20209;-67
2022/08/27 11:08:27;;;;;;;10.38;6.32;;;36.80;47.20;;;;;;5060258;28;20213;-68
2022/08/27 11:11:00;;;;;;;8.57;6.40;;;37.00;47.00;;;;;;5070725;28;20270;-67
2022/08/27 11:13:33;;;;;;;10.18;7.28;;;37.00;46.40;;;;;;5071873;28;20235;-67
2022/08/27 11:16:02;;;;;;;12.32;7.38;;;37.20;45.40;;;;;;5069949;28;20217;-67
2022/08/27 11:18:40;;;;;;;8.55;6.63;;;37.40;45.30;;;;;;5070232;28;20213;-67
2022/08/27 11:21:16;;;;;;;9.82;6.20;;;37.50;44.30;;;;;;5070055;28;20916;-68
2022/08/27 11:23:46;;;;;;;9.48;6.25;;;37.40;44.40;;;;;;5060507;28;20198;-67
2022/08/27 11:26:13;;;;;;;14.10;6.97;;;37.30;44.20;;;;;;5056195;28;20284;-67
2022/08/27 11:28:43;;;;;;;10.75;7.15;;;37.30;44.60;;;;;;5069589;28;20198;-67
2022/08/27 11:31:16;;;;;;;9.23;7.45;;;37.40;44.30;;;;;;5070426;28;20736;-67
2022/08/27 11:33:51;;;;;;;10.60;6.28;;;37.40;44.00;;;;;;5069332;28;20205;-67
2022/08/27 11:36:48;;;;;;;9.02;5.40;;;37.30;43.50;;;;;;5069631;28;20241;-67
2022/08/27 11:39:27;;;;;;;9.48;6.30;;;37.20;43.30;;;;;;5067486;28;20579;-66
2022/08/27 11:42:07;;;;;;;8.57;5.63;;;37.00;42.20;;;;;;5059937;28;20219;-69
2022/08/27 11:44:41;;;;;;;12.23;5.70;;;36.90;41.90;;;;;;5058269;28;20210;-67
2022/08/27 11:47:12;;;;;;;8.82;5.60;;;36.60;42.30;;;;;;5071836;28;20275;-67
2022/08/27 11:49:44;;;;;;;7.00;5.88;;;36.10;42.20;;;;;;5073056;28;20262;-67
2022/08/27 11:52:19;;;;;;;7.93;5.47;;;35.60;42.20;;;;;;5072971;28;20201;-67
2022/08/27 11:54:49;;;;;;;9.90;5.45;;;35.40;42.80;;;;;;5070672;28;20227;-67
2022/08/27 11:57:27;;;;;;;5.30;4.70;;;35.50;43.50;;;;;;5070608;28;20229;-67
2022/08/27 11:59:54;;;;;;;8.82;5.82;;;35.60;43.30;;;;;;5065921;28;20232;-68
2022/08/27 12:02:24;;;;;;;7.05;5.75;;;35.50;43.40;;;;;;5073116;28;20202;-68
2022/08/27 12:04:54;;;;;;;6.07;5.47;;;35.50;43.50;;;;;;5072539;28;20296;-67
2022/08/27 12:07:34;;;;;;;9.90;5.40;;;35.50;43.70;;;;;;5073002;28;20572;-67
2022/08/27 12:10:18;;;;;;;8.73;6.95;;;35.90;43.70;;;;;;5060429;28;20205;-66
2022/08/27 12:12:54;;;;;;;10.05;7.93;;;36.10;42.80;;;;;;5068170;28;20200;-68
2022/08/27 12:15:27;;;;;;;7.20;6.50;;;36.10;42.20;;;;;;5072003;28;20657;-69
2022/08/27 12:18:07;;;;;;;7.88;6.05;;;36.00;41.90;;;;;;5069514;28;20209;-68
2022/08/27 12:20:43;;;;;;;8.30;6.68;;;35.70;42.20;;;;;;5073766;28;20251;-67
2022/08/27 12:23:42;;;;;;;9.10;6.50;;;35.20;43.30;;;;;;5072360;28;20225;-67
2022/08/27 12:26:20;;;;;;;8.85;5.82;;;34.90;43.00;;;;;;5071622;28;20623;-68
2022/08/27 12:28:47;;;;;;;11.05;6.07;;;34.70;43.60;;;;;;5070972;28;20205;-68
2022/08/27 12:31:19;;;;;;;9.65;5.78;;;34.80;43.60;;;;;;5070544;28;20213;-67
2022/08/27 12:33:49;;;;;;;7.97;5.03;;;34.90;43.60;;;;;;5071529;28;20687;-67
2022/08/27 12:36:19;;;;;;;9.70;5.50;;;35.10;43.20;;;;;;5071913;28;20229;-67
2022/08/27 12:38:51;;;;;;;7.15;5.30;;;35.50;42.80;;;;;;5072156;28;20259;-67
2022/08/27 12:41:26;;;;;;;7.85;6.13;;;35.80;42.20;;;;;;5059341;28;20205;-68
2022/08/27 12:44:04;;;;;;;13.63;7.43;;;36.00;41.70;;;;;;5070900;28;20219;-67
2022/08/27 12:46:31;;;;;;;11.93;8.52;;;36.10;40.90;;;;;;5069586;28;20258;-67
2022/08/27 12:49:00;;;;;;;12.02;8.18;;;36.00;39.50;;;;;;5071055;28;20717;-67
2022/08/27 12:51:31;;;;;;;9.20;8.27;;;35.80;38.90;;;;;;5071333;28;20458;-68
2022/08/27 12:54:06;;;;;;;9.02;7.85;;;35.80;38.80;;;;;;5064659;28;20224;-67
2022/08/27 12:56:54;;;;;;;9.82;8.77;;;35.70;39.30;;;;;;5071761;28;20270;-67
2022/08/27 12:59:43;;;;;;;10.45;8.05;;;35.70;39.10;;;;;;5071634;28;20211;-66
2022/08/27 13:02:25;;;;;;;10.65;8.10;;;35.70;39.50;;;;;;5072842;28;20193;-67